^^
Meteo Knjazevac Station Historical Data
Daily Summary for August 16, 2022 Units:  Both    English   Metric
Daily Weekly Monthly Yearly Custom
  High: Low: Average:
Temperature: 90 °F /  32.2 °C 61.9 °F /  16.6 °C 74.5 °F /  23.6 °C
Dew Point: 70.5 °F /  21.4 °C 61.6 °F /  16.4 °C 65.9 °F /  18.8 °C
Humidity: 99% 45% 78%
Wind Speed: 15.6mph /  25.1km/h - 6.3mph /  10.1km/h
Wind Gust: 18mph /  29km/h - -
Wind- - SSW
Pressure: 29.97 in /  1014.8 hPa 29.89 in /  1012.1 hPa -
Precipitation: 0.10 in /  2.54 mm    
Historical Graphs
 
 
Tabular Data for August 16, 2022
Time Temperature Dew Point Pressure Wind Wind Speed Wind Gust Humidity Rainfall Rate (Hourly) solar Conditions
00:04 63.6 °F /  17.6 °C 62.4 °F /  16.9 °C 29.91in /  1012.8hPa West 3mph /  4.8km/h 3mph /  4.8km/h 96% 0.00in /  0mm 0 W/m2
00:09 63.4 °F /  17.4 °C 62.3 °F /  16.8 °C 29.91in /  1012.8hPa West 2.1mph /  3.4km/h 3mph /  4.8km/h 96% 0.00in /  0mm 0 W/m2
00:14 63.3 °F /  17.4 °C 62.2 °F /  16.8 °C 29.91in /  1012.8hPa WSW 1.4mph /  2.3km/h 3mph /  4.8km/h 96% 0.00in /  0mm 0 W/m2
00:19 63.1 °F /  17.3 °C 62 °F /  16.7 °C 29.91in /  1012.8hPa WSW 2.7mph /  4.3km/h 2.5mph /  4km/h 96% 0.00in /  0mm 0 W/m2
00:24 63 °F /  17.2 °C 61.8 °F /  16.6 °C 29.91in /  1012.8hPa WSW 3.6mph /  5.8km/h 3mph /  4.8km/h 96% 0.00in /  0mm 0 W/m2
00:29 62.8 °F /  17.1 °C 62.1 °F /  16.7 °C 29.91in /  1012.8hPa WSW 4.2mph /  6.8km/h 5mph /  8km/h 97.5% 0.00in /  0mm 0 W/m2
00:34 62.5 °F /  16.9 °C 61.9 °F /  16.6 °C 29.91in /  1012.8hPa WSW 3.5mph /  5.6km/h 5mph /  8km/h 98% 0.00in /  0mm 0 W/m2
00:39 62.4 °F /  16.9 °C 61.8 °F /  16.6 °C 29.91in /  1012.8hPa WSW 4.1mph /  6.6km/h 5mph /  8km/h 98% 0.00in /  0mm 0 W/m2
00:44 62.2 °F /  16.8 °C 61.7 °F /  16.5 °C 29.91in /  1012.8hPa WSW 4mph /  6.4km/h 5mph /  8km/h 98% 0.00in /  0mm 0 W/m2
00:49 62.1 °F /  16.7 °C 61.7 °F /  16.5 °C 29.91in /  1012.8hPa West 4.2mph /  6.8km/h 5mph /  8km/h 98.5% 0.00in /  0mm 0 W/m2
00:54 61.9 °F /  16.6 °C 61.6 °F /  16.4 °C 29.91in /  1012.8hPa WSW 3.6mph /  5.8km/h 5mph /  8km/h 98.9% 0.00in /  0mm 0 W/m2
00:59 61.9 °F /  16.6 °C 61.6 °F /  16.4 °C 29.91in /  1012.8hPa West 4.2mph /  6.8km/h 3.6mph /  5.8km/h 99% 0.00in /  0mm 0 W/m2
01:04 61.9 °F /  16.6 °C 61.6 °F /  16.4 °C 29.91in /  1012.8hPa West 4.6mph /  7.4km/h 5mph /  8km/h 99% 0.00in /  0mm 0 W/m2
01:09 61.9 °F /  16.6 °C 61.6 °F /  16.4 °C 29.91in /  1012.8hPa West 4.4mph /  7.1km/h 5mph /  8km/h 99% 0.00in /  0mm 0 W/m2
01:14 61.9 °F /  16.6 °C 61.6 °F /  16.4 °C 29.91in /  1012.8hPa West 3.6mph /  5.8km/h 5mph /  8km/h 99% 0.00in /  0mm 0 W/m2
01:19 62 °F /  16.7 °C 61.7 °F /  16.5 °C 29.91in /  1012.8hPa West 3.6mph /  5.8km/h 5mph /  8km/h 99% 0.00in /  0mm 0 W/m2
01:24 62.1 °F /  16.7 °C 61.9 °F /  16.6 °C 29.91in /  1012.8hPa West 4.1mph /  6.6km/h 4mph /  6.4km/h 99% 0.00in /  0mm 0 W/m2
01:29 62.2 °F /  16.8 °C 62 °F /  16.7 °C 29.91in /  1012.8hPa West 4.4mph /  7.1km/h 5mph /  8km/h 99% 0.00in /  0mm 0 W/m2
01:34 62.2 °F /  16.8 °C 62 °F /  16.7 °C 29.94in /  1013.8hPa West 8.1mph /  13km/h 9.2mph /  14.8km/h 99% 0.00in /  0mm 0 W/m2
01:39 62.3 °F /  16.8 °C 62 °F /  16.7 °C 29.94in /  1013.8hPa West 11.2mph /  18km/h 13mph /  20.9km/h 99% 0.00in /  0mm 0 W/m2
01:44 62.6 °F /  17 °C 62.3 °F /  16.8 °C 29.93in /  1013.4hPa West 6.2mph /  10km/h 13mph /  20.9km/h 99% 0.00in /  0mm 0 W/m2
01:49 63.2 °F /  17.3 °C 62.7 °F /  17.1 °C 29.94in /  1013.8hPa WSW 4.5mph /  7.2km/h 7mph /  11.3km/h 98.3% 0.00in /  0mm 0 W/m2
01:54 63.4 °F /  17.4 °C 62.8 °F /  17.1 °C 29.93in /  1013.4hPa South 3.3mph /  5.3km/h 6mph /  9.7km/h 98% 0.00in /  0mm 0 W/m2
01:59 63.6 °F /  17.6 °C 63 °F /  17.2 °C 29.93in /  1013.4hPa ENE 4.2mph /  6.8km/h 4mph /  6.4km/h 98% 0.00in /  0mm 0 W/m2
02:04 63.9 °F /  17.7 °C 63.3 °F /  17.4 °C 29.93in /  1013.4hPa NE 4.9mph /  7.9km/h 5mph /  8km/h 98% 0.00in /  0mm 0 W/m2
02:09 63.9 °F /  17.7 °C 63.4 °F /  17.4 °C 29.93in /  1013.4hPa NE 6.3mph /  10.1km/h 7mph /  11.3km/h 98% 0.00in /  0mm 0 W/m2
02:14 64.1 °F /  17.8 °C 63.5 °F /  17.5 °C 29.93in /  1013.4hPa NE 3.8mph /  6.1km/h 7mph /  11.3km/h 97.8% 0.00in /  0mm 0 W/m2
02:19 64.3 °F /  17.9 °C 63.2 °F /  17.3 °C 29.92in /  1013.1hPa East 2.8mph /  4.5km/h 2.2mph /  3.5km/h 96% 0.00in /  0mm 0 W/m2
02:24 64.8 °F /  18.2 °C 63.6 °F /  17.6 °C 29.93in /  1013.4hPa East 3.1mph /  5km/h 3mph /  4.8km/h 96% 0.00in /  0mm 0 W/m2
02:29 65.3 °F /  18.5 °C 63.8 °F /  17.7 °C 29.93in /  1013.4hPa ESE 2.8mph /  4.5km/h 4mph /  6.4km/h 95.1% 0.00in /  0mm 0 W/m2
02:34 65.5 °F /  18.6 °C 64 °F /  17.8 °C 29.93in /  1013.4hPa SE 3.4mph /  5.5km/h 4mph /  6.4km/h 95% 0.00in /  0mm 0 W/m2
02:38 65.3 °F /  18.5 °C 63.8 °F /  17.7 °C 29.93in /  1013.4hPa SSE 4.4mph /  7.1km/h 5mph /  8km/h 95% 0.00in /  0mm 0 W/m2
02:44 65.5 °F /  18.6 °C 64.1 °F /  17.8 °C 29.93in /  1013.4hPa SSW 5.2mph /  8.4km/h 6mph /  9.7km/h 95.2% 0.02in /  0.51mm 0 W/m2
02:49 65.7 °F /  18.7 °C 64.5 °F /  18.1 °C 29.93in /  1013.4hPa SSW 5.4mph /  8.7km/h 7mph /  11.3km/h 96% 0.04in /  1.02mm 0 W/m2
02:54 65.8 °F /  18.8 °C 64.7 °F /  18.2 °C 29.93in /  1013.4hPa SSW 5.3mph /  8.5km/h 6mph /  9.7km/h 96% 0.05in /  1.27mm 0 W/m2
02:59 65.9 °F /  18.8 °C 64.8 °F /  18.2 °C 29.93in /  1013.4hPa South 4.8mph /  7.7km/h 7mph /  11.3km/h 96% 0.06in /  1.52mm 0 W/m2
03:04 66.1 °F /  18.9 °C 64.9 °F /  18.3 °C 29.93in /  1013.4hPa South 6.5mph /  10.5km/h 6mph /  9.7km/h 96% 0.07in /  1.78mm 0 W/m2
03:08 66.2 °F /  19 °C 65 °F /  18.3 °C 29.92in /  1013.1hPa SSE 8.1mph /  13km/h 9mph /  14.5km/h 96% 0.07in /  1.78mm 0 W/m2
03:14 66.2 °F /  19 °C 65.1 °F /  18.4 °C 29.93in /  1013.4hPa SE 4.1mph /  6.6km/h 9mph /  14.5km/h 96.4% 0.08in /  2.03mm 0 W/m2
03:19 66 °F /  18.9 °C 65.4 °F /  18.6 °C 29.94in /  1013.8hPa ENE 4.6mph /  7.4km/h 3.4mph /  5.5km/h 98% 0.08in /  2.03mm 0 W/m2
03:24 65.8 °F /  18.8 °C 65.3 °F /  18.5 °C 29.94in /  1013.8hPa NNE 5.1mph /  8.2km/h 5mph /  8km/h 98% 0.08in /  2.03mm 0 W/m2
03:29 65.8 °F /  18.8 °C 65.4 °F /  18.6 °C 29.94in /  1013.8hPa ENE 6.3mph /  10.1km/h 7mph /  11.3km/h 98.3% 0.08in /  2.03mm 0 W/m2
03:34 65.8 °F /  18.8 °C 65.5 °F /  18.6 °C 29.94in /  1013.8hPa ESE 7.4mph /  11.9km/h 7mph /  11.3km/h 99% 0.08in /  2.03mm 0 W/m2
03:38 65.8 °F /  18.8 °C 65.5 °F /  18.6 °C 29.94in /  1013.8hPa SE 9.3mph /  15km/h 8mph /  12.9km/h 99% 0.08in /  2.03mm 0 W/m2
03:43 65.8 °F /  18.8 °C 65.6 °F /  18.7 °C 29.94in /  1013.8hPa SE 12mph /  19.3km/h 12mph /  19.3km/h 99% 0.07in /  1.78mm 0 W/m2
03:49 66.1 °F /  18.9 °C 65.5 °F /  18.6 °C 29.94in /  1013.8hPa SE 12.6mph /  20.3km/h 17mph /  27.4km/h 98% 0.06in /  1.52mm 0 W/m2
03:54 66.3 °F /  19.1 °C 65.7 °F /  18.7 °C 29.94in /  1013.8hPa SE 10.9mph /  17.5km/h 7.4mph /  11.9km/h 98% 0.04in /  1.02mm 0 W/m2
03:59 66.3 °F /  19.1 °C 65.7 °F /  18.7 °C 29.94in /  1013.8hPa SSE 7.1mph /  11.4km/h 12mph /  19.3km/h 98% 0.03in /  0.76mm 0 W/m2
04:04 66 °F /  18.9 °C 65.4 °F /  18.6 °C 29.94in /  1013.8hPa South 6.9mph /  11.1km/h 4.2mph /  6.8km/h 98% 0.02in /  0.51mm 0 W/m2
04:08 65.9 °F /  18.8 °C 65.5 °F /  18.6 °C 29.94in /  1013.8hPa SSW 6.2mph /  10km/h 10mph /  16.1km/h 98.5% 0.01in /  0.25mm 0 W/m2
04:14 65.8 °F /  18.8 °C 65.6 °F /  18.7 °C 29.94in /  1013.8hPa WSW 4.8mph /  7.7km/h 7mph /  11.3km/h 98.9% 0.01in /  0.25mm 0 W/m2
04:19 65.8 °F /  18.8 °C 65.6 °F /  18.7 °C 29.94in /  1013.8hPa WSW 3.5mph /  5.6km/h 5mph /  8km/h 99% 0.00in /  0mm 0 W/m2
04:24 65.7 °F /  18.7 °C 65.4 °F /  18.6 °C 29.94in /  1013.8hPa SW 3.4mph /  5.5km/h 4mph /  6.4km/h 99% 0.00in /  0mm 0 W/m2
04:29 65.7 °F /  18.7 °C 65.4 °F /  18.6 °C 29.94in /  1013.8hPa SSW 5.2mph /  8.4km/h 4mph /  6.4km/h 99% 0.00in /  0mm 0 W/m2
04:34 65.7 °F /  18.7 °C 65.4 °F /  18.6 °C 29.94in /  1013.8hPa South 3.5mph /  5.6km/h 7mph /  11.3km/h 99% 0.00in /  0mm 0 W/m2
04:39 65.7 °F /  18.7 °C 65.3 °F /  18.5 °C 29.94in /  1013.8hPa SSW 3.8mph /  6.1km/h 4mph /  6.4km/h 98.8% 0.00in /  0mm 0 W/m2
04:44 65.7 °F /  18.7 °C 65.1 °F /  18.4 °C 29.94in /  1013.8hPa SSW 3.4mph /  5.5km/h 5mph /  8km/h 98.1% 0.00in /  0mm 0 W/m2
04:49 65.7 °F /  18.7 °C 65.2 °F /  18.4 °C 29.94in /  1013.8hPa SSE 2.9mph /  4.7km/h 4mph /  6.4km/h 98.2% 0.00in /  0mm 0 W/m2
04:54 65.6 °F /  18.7 °C 65.3 °F /  18.5 °C 29.94in /  1013.8hPa SE 3mph /  4.8km/h 4mph /  6.4km/h 98.8% 0.00in /  0mm 0 W/m2
04:59 65.4 °F /  18.6 °C 65.1 °F /  18.4 °C 29.94in /  1013.8hPa SSE 3.9mph /  6.3km/h 3.1mph /  5km/h 99% 0.00in /  0mm 0 W/m2
05:04 65.3 °F /  18.5 °C 65 °F /  18.3 °C 29.94in /  1013.8hPa South 2.8mph /  4.5km/h 5mph /  8km/h 99% 0.00in /  0mm 0 W/m2
05:08 65.2 °F /  18.4 °C 64.9 °F /  18.3 °C 29.94in /  1013.8hPa SSW 2.5mph /  4km/h 4mph /  6.4km/h 99% 0.00in /  0mm 0 W/m2
05:14 65.1 °F /  18.4 °C 64.8 °F /  18.2 °C 29.94in /  1013.8hPa South 4.7mph /  7.6km/h 4mph /  6.4km/h 99% 0.00in /  0mm 0 W/m2
05:19 65.1 °F /  18.4 °C 64.8 °F /  18.2 °C 29.94in /  1013.8hPa ESE 3.1mph /  5km/h 2.5mph /  4km/h 99% 0.00in /  0mm 0 W/m2
05:24 65.1 °F /  18.4 °C 64.8 °F /  18.2 °C 29.94in /  1013.8hPa ESE 2.9mph /  4.7km/h 3mph /  4.8km/h 99% 0.00in /  0mm 0 W/m2
05:29 65.1 °F /  18.4 °C 64.8 °F /  18.2 °C 29.94in /  1013.8hPa SSE 3.2mph /  5.1km/h 3mph /  4.8km/h 99% 0.00in /  0mm 1 W/m2
05:34 64.9 °F /  18.3 °C 64.7 °F /  18.2 °C 29.94in /  1013.8hPa SSE 3.4mph /  5.5km/h 4mph /  6.4km/h 99% 0.00in /  0mm 2 W/m2
05:39 64.9 °F /  18.3 °C 64.7 °F /  18.2 °C 29.94in /  1013.8hPa SE 2.9mph /  4.7km/h 1.6mph /  2.6km/h 99% 0.00in /  0mm 4 W/m2
05:44 64.9 °F /  18.3 °C 64.6 °F /  18.1 °C 29.94in /  1013.8hPa SSE 2.2mph /  3.5km/h 2.2mph /  3.5km/h 99% 0.00in /  0mm 7 W/m2
05:49 64.8 °F /  18.2 °C 64.5 °F /  18.1 °C 29.94in /  1013.8hPa West 2.1mph /  3.4km/h 3mph /  4.8km/h 99% 0.00in /  0mm 9 W/m2
05:54 64.7 °F /  18.2 °C 64.4 °F /  18 °C 29.94in /  1013.8hPa WSW 2.7mph /  4.3km/h 3mph /  4.8km/h 99% 0.00in /  0mm 14 W/m2
05:59 64.5 °F /  18.1 °C 64.2 °F /  17.9 °C 29.95in /  1014.1hPa SW 4mph /  6.4km/h 3.6mph /  5.8km/h 99% 0.00in /  0mm 19 W/m2
06:04 64.2 °F /  17.9 °C 63.9 °F /  17.7 °C 29.95in /  1014.1hPa South 4.8mph /  7.7km/h 5mph /  8km/h 99% 0.00in /  0mm 28 W/m2
06:09 64 °F /  17.8 °C 63.8 °F /  17.7 °C 29.95in /  1014.1hPa South 3.9mph /  6.3km/h 6mph /  9.7km/h 99% 0.00in /  0mm 39 W/m2
06:14 64 °F /  17.8 °C 63.8 °F /  17.7 °C 29.95in /  1014.1hPa WSW 2.8mph /  4.5km/h 5mph /  8km/h 99% 0.00in /  0mm 40 W/m2
06:19 64 °F /  17.8 °C 63.8 °F /  17.7 °C 29.95in /  1014.1hPa NW 2.6mph /  4.2km/h 1.6mph /  2.6km/h 99% 0.00in /  0mm 40 W/m2
06:24 64 °F /  17.8 °C 63.8 °F /  17.7 °C 29.95in /  1014.1hPa WNW 3.8mph /  6.1km/h 4mph /  6.4km/h 99% 0.00in /  0mm 39 W/m2
06:29 64.2 °F /  17.9 °C 63.9 °F /  17.7 °C 29.95in /  1014.1hPa South 3.3mph /  5.3km/h 5mph /  8km/h 99% 0.00in /  0mm 36 W/m2
06:34 64.5 °F /  18.1 °C 64.2 °F /  17.9 °C 29.95in /  1014.1hPa SSE 3.3mph /  5.3km/h 4mph /  6.4km/h 99% 0.00in /  0mm 24 W/m2
06:39 64.6 °F /  18.1 °C 64.3 °F /  17.9 °C 29.95in /  1014.1hPa SE 2.4mph /  3.9km/h 3mph /  4.8km/h 99% 0.00in /  0mm 24 W/m2
06:44 64.8 °F /  18.2 °C 64.5 °F /  18.1 °C 29.95in /  1014.1hPa SE 6.1mph /  9.8km/h 7mph /  11.3km/h 99% 0.00in /  0mm 23 W/m2
06:48 65 °F /  18.3 °C 64.8 °F /  18.2 °C 29.95in /  1014.1hPa SE 4.8mph /  7.7km/h 7mph /  11.3km/h 99% 0.00in /  0mm 22 W/m2
06:54 65.1 °F /  18.4 °C 64.8 °F /  18.2 °C 29.95in /  1014.1hPa SSE 5.1mph /  8.2km/h 6mph /  9.7km/h 99% 0.00in /  0mm 30 W/m2
06:59 65.3 °F /  18.5 °C 65 °F /  18.3 °C 29.95in /  1014.1hPa SSE 7.4mph /  11.9km/h 7mph /  11.3km/h 99% 0.00in /  0mm 43 W/m2
07:04 65.5 °F /  18.6 °C 65.2 °F /  18.4 °C 29.95in /  1014.1hPa SSE 7.3mph /  11.7km/h 9mph /  14.5km/h 99% 0.00in /  0mm 54 W/m2
07:09 65.6 °F /  18.7 °C 65.3 °F /  18.5 °C 29.95in /  1014.1hPa SSE 4.7mph /  7.6km/h 8mph /  12.9km/h 99% 0.00in /  0mm 67 W/m2
07:14 65.7 °F /  18.7 °C 65.4 °F /  18.6 °C 29.95in /  1014.1hPa SSE 1mph /  1.6km/h 5mph /  8km/h 99% 0.00in /  0mm 84 W/m2
07:19 65.8 °F /  18.8 °C 65.6 °F /  18.7 °C 29.94in /  1013.8hPa South 4.3mph /  6.9km/h 3.8mph /  6.1km/h 99% 0.00in /  0mm 112 W/m2
07:24 66.1 °F /  18.9 °C 65.5 °F /  18.6 °C 29.94in /  1013.8hPa SE 4.8mph /  7.7km/h 7mph /  11.3km/h 98.2% 0.00in /  0mm 118 W/m2
07:29 66.3 °F /  19.1 °C 65.7 °F /  18.7 °C 29.94in /  1013.8hPa SE 4.7mph /  7.6km/h 5mph /  8km/h 98% 0.00in /  0mm 170 W/m2
07:34 66.6 °F /  19.2 °C 65.7 °F /  18.7 °C 29.94in /  1013.8hPa SE 4.4mph /  7.1km/h 6mph /  9.7km/h 97.2% 0.00in /  0mm 115 W/m2
07:39 66.7 °F /  19.3 °C 65.7 °F /  18.7 °C 29.94in /  1013.8hPa SSE 3.5mph /  5.6km/h 1.3mph /  2.1km/h 96.4% 0.00in /  0mm 86 W/m2
07:44 66.9 °F /  19.4 °C 65.7 °F /  18.7 °C 29.94in /  1013.8hPa ESE 4.5mph /  7.2km/h 3.6mph /  5.8km/h 96% 0.00in /  0mm 92 W/m2
07:49 67.1 °F /  19.5 °C 65.8 °F /  18.8 °C 29.95in /  1014.1hPa East 5.7mph /  9.2km/h 7mph /  11.3km/h 96% 0.00in /  0mm 93 W/m2
07:54 67.3 °F /  19.6 °C 65.8 °F /  18.8 °C 29.95in /  1014.1hPa ESE 4.5mph /  7.2km/h 6mph /  9.7km/h 95.2% 0.00in /  0mm 103 W/m2
07:59 67.3 °F /  19.6 °C 65.8 °F /  18.8 °C 29.95in /  1014.1hPa SE 5.8mph /  9.3km/h 6mph /  9.7km/h 95% 0.00in /  0mm 124 W/m2
08:04 67.5 °F /  19.7 °C 65.9 °F /  18.8 °C 29.95in /  1014.1hPa SSE 4.1mph /  6.6km/h 7mph /  11.3km/h 94.3% 0.00in /  0mm 243 W/m2
08:09 67.7 °F /  19.8 °C 66 °F /  18.9 °C 29.95in /  1014.1hPa SSE 4mph /  6.4km/h 2.9mph /  4.7km/h 94% 0.00in /  0mm 309 W/m2
08:14 68 °F /  20 °C 66.1 °F /  18.9 °C 29.95in /  1014.1hPa SE 3.4mph /  5.5km/h 5mph /  8km/h 93.9% 0.00in /  0mm 360 W/m2
08:19 68.4 °F /  20.2 °C 66.3 °F /  19.1 °C 29.95in /  1014.1hPa SE 4.3mph /  6.9km/h 4mph /  6.4km/h 93% 0.00in /  0mm 365 W/m2
08:24 68.7 °F /  20.4 °C 66.6 °F /  19.2 °C 29.94in /  1013.8hPa ESE 6.5mph /  10.5km/h 7mph /  11.3km/h 93% 0.00in /  0mm 390 W/m2
08:29 69.4 °F /  20.8 °C 67 °F /  19.4 °C 29.94in /  1013.8hPa ESE 6.8mph /  10.9km/h 7mph /  11.3km/h 92.2% 0.00in /  0mm 410 W/m2
08:34 70.1 °F /  21.2 °C 67 °F /  19.4 °C 29.94in /  1013.8hPa ESE 6.1mph /  9.8km/h 8mph /  12.9km/h 90.1% 0.00in /  0mm 429 W/m2
08:39 70.6 °F /  21.4 °C 67.3 °F /  19.6 °C 29.94in /  1013.8hPa ESE 5.8mph /  9.3km/h 7mph /  11.3km/h 89.1% 0.00in /  0mm 443 W/m2
08:44 71.2 °F /  21.8 °C 67.3 °F /  19.6 °C 29.94in /  1013.8hPa ESE 5.7mph /  9.2km/h 7mph /  11.3km/h 87.6% 0.00in /  0mm 465 W/m2
08:49 71.5 °F /  21.9 °C 67.3 °F /  19.6 °C 29.94in /  1013.8hPa ESE 5.3mph /  8.5km/h 7mph /  11.3km/h 86.4% 0.00in /  0mm 479 W/m2
08:54 72.1 °F /  22.3 °C 67.7 °F /  19.8 °C 29.94in /  1013.8hPa ESE 4.5mph /  7.2km/h 6mph /  9.7km/h 85.8% 0.00in /  0mm 487 W/m2
08:59 72.6 °F /  22.6 °C 67.8 °F /  19.9 °C 29.94in /  1013.8hPa SE 4.8mph /  7.7km/h 6mph /  9.7km/h 84.8% 0.00in /  0mm 487 W/m2
09:04 72.9 °F /  22.7 °C 67.8 °F /  19.9 °C 29.94in /  1013.8hPa SE 5.8mph /  9.3km/h 6mph /  9.7km/h 84% 0.00in /  0mm 525 W/m2
09:08 73.4 °F /  23 °C 68 °F /  20 °C 29.94in /  1013.8hPa ESE 6.1mph /  9.8km/h 4mph /  6.4km/h 83.3% 0.00in /  0mm 525 W/m2
09:14 74 °F /  23.3 °C 68 °F /  20 °C 29.94in /  1013.8hPa ESE 4.5mph /  7.2km/h 6mph /  9.7km/h 81.5% 0.00in /  0mm 541 W/m2
09:19 74.4 °F /  23.6 °C 67.9 °F /  19.9 °C 29.94in /  1013.8hPa SE 4.1mph /  6.6km/h 5mph /  8km/h 80.3% 0.00in /  0mm 566 W/m2
09:24 74.8 °F /  23.8 °C 68.2 °F /  20.1 °C 29.94in /  1013.8hPa SSE 4.6mph /  7.4km/h 5mph /  8km/h 79.9% 0.00in /  0mm 590 W/m2
09:29 75.3 °F /  24.1 °C 68.4 °F /  20.2 °C 29.94in /  1013.8hPa SE 4.5mph /  7.2km/h 6mph /  9.7km/h 79.3% 0.00in /  0mm 600 W/m2
09:34 75.9 °F /  24.4 °C 68.8 °F /  20.4 °C 29.94in /  1013.8hPa SE 7.2mph /  11.6km/h 4.9mph /  7.9km/h 78.5% 0.00in /  0mm 603 W/m2
09:39 76.1 °F /  24.5 °C 69 °F /  20.6 °C 29.94in /  1013.8hPa SE 4.1mph /  6.6km/h 8mph /  12.9km/h 78.7% 0.00in /  0mm 616 W/m2
09:44 76.6 °F /  24.8 °C 69.3 °F /  20.7 °C 29.94in /  1013.8hPa SE 7.6mph /  12.2km/h 4.9mph /  7.9km/h 78.1% 0.00in /  0mm 631 W/m2
09:49 76.7 °F /  24.8 °C 69.2 °F /  20.7 °C 29.93in /  1013.4hPa SE 5.5mph /  8.9km/h 8mph /  12.9km/h 77.7% 0.00in /  0mm 662 W/m2
09:54 77 °F /  25 °C 69.1 °F /  20.6 °C 29.93in /  1013.4hPa SE 5.9mph /  9.5km/h 4.5mph /  7.2km/h 76.8% 0.00in /  0mm 673 W/m2
09:59 77.4 °F /  25.2 °C 69.4 °F /  20.8 °C 29.93in /  1013.4hPa SE 6.3mph /  10.1km/h 8mph /  12.9km/h 76.4% 0.00in /  0mm 677 W/m2
10:04 78 °F /  25.6 °C 70.2 °F /  21.2 °C 29.93in /  1013.4hPa South 5.1mph /  8.2km/h 8mph /  12.9km/h 77% 0.00in /  0mm 687 W/m2
10:09 78.8 °F /  26 °C 70.5 °F /  21.4 °C 29.93in /  1013.4hPa SSW 5.8mph /  9.3km/h 6mph /  9.7km/h 75.7% 0.00in /  0mm 704 W/m2
10:14 79.5 °F /  26.4 °C 70.2 °F /  21.2 °C 29.93in /  1013.4hPa SSW 5.5mph /  8.9km/h 7mph /  11.3km/h 73.4% 0.00in /  0mm 729 W/m2
10:19 80.1 °F /  26.7 °C 70.1 °F /  21.2 °C 29.93in /  1013.4hPa SSW 7.3mph /  11.7km/h 7mph /  11.3km/h 71.6% 0.00in /  0mm 729 W/m2
10:24 80.6 °F /  27 °C 69.7 °F /  20.9 °C 29.93in /  1013.4hPa SSW 9mph /  14.5km/h 8mph /  12.9km/h 69.4% 0.00in /  0mm 740 W/m2
10:27 80.9 °F /  27.2 °C 69.3 °F /  20.7 °C 29.93in /  1013.4hPa SSW 12.1mph /  19.5km/h 8.5mph /  13.7km/h 68% 0.00in /  0mm 756 W/m2
10:34 81.1 °F /  27.3 °C 69.6 °F /  20.9 °C 29.93in /  1013.4hPa SW 11mph /  17.7km/h 13mph /  20.9km/h 68.2% 0.00in /  0mm 761 W/m2
10:39 81.3 °F /  27.4 °C 69.5 °F /  20.8 °C 29.93in /  1013.4hPa SW 11.8mph /  19km/h 15mph /  24.1km/h 67.5% 0.00in /  0mm 778 W/m2
10:44 81.3 °F /  27.4 °C 69.6 °F /  20.9 °C 29.93in /  1013.4hPa SW 12.1mph /  19.5km/h 15mph /  24.1km/h 67.8% 0.00in /  0mm 778 W/m2
10:49 81.3 °F /  27.4 °C 69.7 °F /  20.9 °C 29.93in /  1013.4hPa SW 11.5mph /  18.5km/h 13mph /  20.9km/h 67.9% 0.00in /  0mm 758 W/m2
10:54 81.7 °F /  27.6 °C 69.9 °F /  21.1 °C 29.93in /  1013.4hPa SW 8.9mph /  14.3km/h 12mph /  19.3km/h 67.5% 0.00in /  0mm 741 W/m2
10:59 82.1 °F /  27.8 °C 69.9 °F /  21.1 °C 29.93in /  1013.4hPa SSW 10.8mph /  17.4km/h 12mph /  19.3km/h 66.7% 0.00in /  0mm 741 W/m2
11:03 82.1 °F /  27.8 °C 69.6 °F /  20.9 °C 29.93in /  1013.4hPa SSW 11mph /  17.7km/h 12mph /  19.3km/h 65.9% 0.00in /  0mm 668 W/m2
11:08 82.4 °F /  28 °C 69.3 °F /  20.7 °C 29.93in /  1013.4hPa SSW 13.7mph /  22km/h 12mph /  19.3km/h 64.8% 0.00in /  0mm 537 W/m2
11:14 82.6 °F /  28.1 °C 69.3 °F /  20.7 °C 29.93in /  1013.4hPa SSW 11.3mph /  18.2km/h 15mph /  24.1km/h 64.3% 0.00in /  0mm 366 W/m2
11:19 82.9 °F /  28.3 °C 69.5 °F /  20.8 °C 29.93in /  1013.4hPa SSW 12.2mph /  19.6km/h 13mph /  20.9km/h 64% 0.00in /  0mm 174 W/m2
11:24 83.1 °F /  28.4 °C 69.7 °F /  20.9 °C 29.93in /  1013.4hPa SW 11.5mph /  18.5km/h 13mph /  20.9km/h 64% 0.00in /  0mm 148 W/m2
11:29 83.5 °F /  28.6 °C 69.9 °F /  21.1 °C 29.93in /  1013.4hPa SW 9.3mph /  15km/h 13mph /  20.9km/h 63.7% 0.00in /  0mm 249 W/m2
11:34 83.9 °F /  28.8 °C 70 °F /  21.1 °C 29.93in /  1013.4hPa SW 10.2mph /  16.4km/h 11mph /  17.7km/h 62.9% 0.00in /  0mm 379 W/m2
11:39 84.3 °F /  29.1 °C 69.6 °F /  20.9 °C 29.93in /  1013.4hPa SSW 9.5mph /  15.3km/h 13mph /  20.9km/h 61.4% 0.00in /  0mm 650 W/m2
11:44 84.7 °F /  29.3 °C 68.8 °F /  20.4 °C 29.92in /  1013.1hPa SSW 9.9mph /  15.9km/h 7.8mph /  12.6km/h 59% 0.00in /  0mm 888 W/m2
11:49 84.8 °F /  29.3 °C 68.6 °F /  20.3 °C 29.92in /  1013.1hPa SW 9.4mph /  15.1km/h 12mph /  19.3km/h 58.4% 0.00in /  0mm 895 W/m2
11:54 85 °F /  29.4 °C 68.9 °F /  20.5 °C 29.92in /  1013.1hPa SSW 8.7mph /  14km/h 9mph /  14.5km/h 58.7% 0.00in /  0mm 897 W/m2
11:59 85.4 °F /  29.7 °C 69 °F /  20.6 °C 29.92in /  1013.1hPa SSW 8.4mph /  13.5km/h 13mph /  20.9km/h 58.2% 0.00in /  0mm 903 W/m2
12:04 85.8 °F /  29.9 °C 69.2 °F /  20.7 °C 29.92in /  1013.1hPa SW 9.9mph /  15.9km/h 10mph /  16.1km/h 57.9% 0.00in /  0mm 905 W/m2
12:09 85.9 °F /  29.9 °C 69.2 °F /  20.7 °C 29.92in /  1013.1hPa SW 8.7mph /  14km/h 12mph /  19.3km/h 57.5% 0.00in /  0mm 913 W/m2
12:14 86 °F /  30 °C 69 °F /  20.6 °C 29.91in /  1012.8hPa SW 9.1mph /  14.6km/h 10mph /  16.1km/h 57% 0.00in /  0mm 919 W/m2
12:19 86.3 °F /  30.2 °C 69.1 °F /  20.6 °C 29.91in /  1012.8hPa SW 10.2mph /  16.4km/h 8.7mph /  14km/h 56.6% 0.00in /  0mm 924 W/m2
12:24 86.4 °F /  30.2 °C 68.5 °F /  20.3 °C 29.91in /  1012.8hPa SW 10.4mph /  16.7km/h 13mph /  20.9km/h 55.4% 0.00in /  0mm 932 W/m2
12:29 86.5 °F /  30.3 °C 68.5 °F /  20.3 °C 29.91in /  1012.8hPa SW 11.6mph /  18.7km/h 12mph /  19.3km/h 55% 0.00in /  0mm 937 W/m2
12:34 86.7 °F /  30.4 °C 68.5 °F /  20.3 °C 29.91in /  1012.8hPa SW 12.6mph /  20.3km/h 14mph /  22.5km/h 54.8% 0.00in /  0mm 928 W/m2
12:39 86.7 °F /  30.4 °C 68 °F /  20 °C 29.91in /  1012.8hPa SW 11.9mph /  19.2km/h 14mph /  22.5km/h 53.9% 0.00in /  0mm 932 W/m2
12:44 86.8 °F /  30.4 °C 67.6 °F /  19.8 °C 29.91in /  1012.8hPa SW 11.9mph /  19.2km/h 9.2mph /  14.8km/h 52.9% 0.00in /  0mm 922 W/m2
12:49 86.9 °F /  30.5 °C 68.1 °F /  20.1 °C 29.91in /  1012.8hPa SW 12.3mph /  19.8km/h 13mph /  20.9km/h 53.7% 0.00in /  0mm 859 W/m2
12:54 86.8 °F /  30.4 °C 67.6 °F /  19.8 °C 29.91in /  1012.8hPa SW 12.7mph /  20.4km/h 13mph /  20.9km/h 52.9% 0.00in /  0mm 599 W/m2
12:59 86.6 °F /  30.3 °C 67 °F /  19.4 °C 29.91in /  1012.8hPa SW 15.6mph /  25.1km/h 16mph /  25.7km/h 52.3% 0.00in /  0mm 892 W/m2
13:04 86.4 °F /  30.2 °C 66.7 °F /  19.3 °C 29.91in /  1012.8hPa SW 14.7mph /  23.7km/h 17mph /  27.4km/h 52% 0.00in /  0mm 944 W/m2
13:09 86.3 °F /  30.2 °C 66.8 °F /  19.3 °C 29.91in /  1012.8hPa SW 13.8mph /  22.2km/h 17mph /  27.4km/h 52.4% 0.00in /  0mm 1087 W/m2
13:14 86.7 °F /  30.4 °C 67.3 °F /  19.6 °C 29.91in /  1012.8hPa SW 12.9mph /  20.8km/h 15mph /  24.1km/h 52.6% 0.00in /  0mm 1035 W/m2
13:19 87 °F /  30.6 °C 67.4 °F /  19.7 °C 29.91in /  1012.8hPa SW 14.1mph /  22.7km/h 14mph /  22.5km/h 52.3% 0.00in /  0mm 1039 W/m2
13:23 87.3 °F /  30.7 °C 67.5 °F /  19.7 °C 29.91in /  1012.8hPa SW 10.9mph /  17.5km/h 16mph /  25.7km/h 52% 0.00in /  0mm 1007 W/m2
13:29 87.7 °F /  30.9 °C 67.6 °F /  19.8 °C 29.91in /  1012.8hPa SW 13.4mph /  21.6km/h 15mph /  24.1km/h 51.6% 0.00in /  0mm 957 W/m2
13:34 87.8 °F /  31 °C 66.9 °F /  19.4 °C 29.91in /  1012.8hPa SW 11.7mph /  18.8km/h 15mph /  24.1km/h 50.2% 0.00in /  0mm 948 W/m2
13:39 88 °F /  31.1 °C 67.5 °F /  19.7 °C 29.91in /  1012.8hPa SW 12.9mph /  20.8km/h 13mph /  20.9km/h 51% 0.01in /  0.25mm 953 W/m2
13:43 87.8 °F /  31 °C 66.4 °F /  19.1 °C 29.91in /  1012.8hPa SW 12.9mph /  20.8km/h 16mph /  25.7km/h 49.2% 0.01in /  0.25mm 942 W/m2
13:49 87.7 °F /  30.9 °C 66.9 °F /  19.4 °C 29.91in /  1012.8hPa SSW 10.1mph /  16.3km/h 13mph /  20.9km/h 50.2% 0.01in /  0.25mm 953 W/m2
13:54 88.3 °F /  31.3 °C 67.4 °F /  19.7 °C 29.91in /  1012.8hPa SSW 10.9mph /  17.5km/h 13mph /  20.9km/h 50.1% 0.01in /  0.25mm 945 W/m2
13:59 88.6 °F /  31.4 °C 66.7 °F /  19.3 °C 29.91in /  1012.8hPa SSW 13.2mph /  21.2km/h 14mph /  22.5km/h 48.6% 0.01in /  0.25mm 922 W/m2
14:04 88.5 °F /  31.4 °C 66.8 °F /  19.3 °C 29.91in /  1012.8hPa SSW 12.2mph /  19.6km/h 14mph /  22.5km/h 48.9% 0.01in /  0.25mm 890 W/m2
14:09 88.3 °F /  31.3 °C 66.2 °F /  19 °C 29.91in /  1012.8hPa SSW 13.3mph /  21.4km/h 14mph /  22.5km/h 48% 0.01in /  0.25mm 869 W/m2
14:14 88.3 °F /  31.3 °C 66.8 °F /  19.3 °C 29.90in /  1012.4hPa SW 14.2mph /  22.9km/h 10.1mph /  16.3km/h 49% 0.01in /  0.25mm 876 W/m2
14:19 88.5 °F /  31.4 °C 66.4 °F /  19.1 °C 29.90in /  1012.4hPa SW 14.7mph /  23.7km/h 11.2mph /  18km/h 48.1% 0.01in /  0.25mm 873 W/m2
14:24 88.5 °F /  31.4 °C 65.7 °F /  18.7 °C 29.90in /  1012.4hPa SW 15.1mph /  24.3km/h 18mph /  29km/h 47% 0.01in /  0.25mm 852 W/m2
14:29 88.7 °F /  31.5 °C 65.1 °F /  18.4 °C 29.90in /  1012.4hPa SW 14.7mph /  23.7km/h 17mph /  27.4km/h 45.8% 0.01in /  0.25mm 839 W/m2
14:34 88.6 °F /  31.4 °C 65.7 °F /  18.7 °C 29.90in /  1012.4hPa SW 14.8mph /  23.8km/h 17mph /  27.4km/h 46.8% 0.01in /  0.25mm 803 W/m2
14:39 88.5 °F /  31.4 °C 66.2 °F /  19 °C 29.90in /  1012.4hPa SW 10.8mph /  17.4km/h 16mph /  25.7km/h 47.8% 0.01in /  0.25mm 839 W/m2
14:44 88.7 °F /  31.5 °C 67 °F /  19.4 °C 29.90in /  1012.4hPa SW 11.2mph /  18km/h 14mph /  22.5km/h 48.8% 0.01in /  0.25mm 788 W/m2
14:49 89 °F /  31.7 °C 66.6 °F /  19.2 °C 29.90in /  1012.4hPa WSW 11.4mph /  18.3km/h 13mph /  20.9km/h 47.6% 0.01in /  0.25mm 796 W/m2
14:54 89.1 °F /  31.7 °C 65.7 °F /  18.7 °C 29.90in /  1012.4hPa SW 12.9mph /  20.8km/h 14mph /  22.5km/h 46.1% 0.01in /  0.25mm 776 W/m2
14:59 89.3 °F /  31.8 °C 66.9 °F /  19.4 °C 29.90in /  1012.4hPa WSW 10.4mph /  16.7km/h 14mph /  22.5km/h 47.7% 0.01in /  0.25mm 767 W/m2
15:04 89.6 °F /  32 °C 67.8 °F /  19.9 °C 29.90in /  1012.4hPa WSW 7.6mph /  12.2km/h 12mph /  19.3km/h 48.8% 0.01in /  0.25mm 751 W/m2
15:09 89.8 °F /  32.1 °C 67.7 °F /  19.8 °C 29.89in /  1012.1hPa SW 10.9mph /  17.5km/h 9.4mph /  15.1km/h 48.3% 0.01in /  0.25mm 738 W/m2
15:14 90 °F /  32.2 °C 66.1 °F /  18.9 °C 29.89in /  1012.1hPa WSW 10.9mph /  17.5km/h 8.3mph /  13.4km/h 45.4% 0.01in /  0.25mm 731 W/m2
15:19 89.8 °F /  32.1 °C 66.1 °F /  18.9 °C 29.89in /  1012.1hPa WSW 12mph /  19.3km/h 12mph /  19.3km/h 45.7% 0.01in /  0.25mm 714 W/m2
15:24 89.3 °F /  31.8 °C 66.9 °F /  19.4 °C 29.89in /  1012.1hPa SW 10.8mph /  17.4km/h 8.9mph /  14.3km/h 47.7% 0.01in /  0.25mm 630 W/m2
15:28 89.2 °F /  31.8 °C 66.6 °F /  19.2 °C 29.89in /  1012.1hPa SW 11.8mph /  19km/h 11mph /  17.7km/h 47.4% 0.01in /  0.25mm 716 W/m2
15:34 89.2 °F /  31.8 °C 66.1 °F /  18.9 °C 29.89in /  1012.1hPa SW 12.3mph /  19.8km/h 15mph /  24.1km/h 46.5% 0.00in /  0mm 689 W/m2
15:39 89.3 °F /  31.8 °C 65.9 °F /  18.8 °C 29.89in /  1012.1hPa SW 10.8mph /  17.4km/h 14mph /  22.5km/h 46.1% 0.00in /  0mm 601 W/m2
15:44 88.9 °F /  31.6 °C 65.1 °F /  18.4 °C 29.89in /  1012.1hPa SW 12.2mph /  19.6km/h 13mph /  20.9km/h 45.4% 0.00in /  0mm 549 W/m2
15:49 88.7 °F /  31.5 °C 65.5 °F /  18.6 °C 29.89in /  1012.1hPa SW 11.2mph /  18km/h 15mph /  24.1km/h 46.4% 0.00in /  0mm 636 W/m2
15:54 88.9 °F /  31.6 °C 65.4 °F /  18.6 °C 29.89in /  1012.1hPa SW 13.3mph /  21.4km/h 15mph /  24.1km/h 46% 0.00in /  0mm 606 W/m2
15:59 88.6 °F /  31.4 °C 64.6 °F /  18.1 °C 29.89in /  1012.1hPa SW 11.9mph /  19.2km/h 15mph /  24.1km/h 45% 0.00in /  0mm 393 W/m2
16:04 88.2 °F /  31.2 °C 65.6 °F /  18.7 °C 29.89in /  1012.1hPa SW 10.1mph /  16.3km/h 14mph /  22.5km/h 47.3% 0.00in /  0mm 262 W/m2
16:09 87.7 °F /  30.9 °C 65.4 °F /  18.6 °C 29.90in /  1012.4hPa SW 13.2mph /  21.2km/h 13mph /  20.9km/h 47.8% 0.00in /  0mm 191 W/m2
16:13 87.2 °F /  30.7 °C 65.3 °F /  18.5 °C 29.90in /  1012.4hPa SW 11.7mph /  18.8km/h 14mph /  22.5km/h 48.2% 0.00in /  0mm 187 W/m2
16:19 86.8 °F /  30.4 °C 64.9 °F /  18.3 °C 29.90in /  1012.4hPa WSW 12.1mph /  19.5km/h 10.3mph /  16.6km/h 48.2% 0.00in /  0mm 183 W/m2
16:24 86.5 °F /  30.3 °C 64.9 °F /  18.3 °C 29.90in /  1012.4hPa WSW 10.2mph /  16.4km/h 13mph /  20.9km/h 48.8% 0.00in /  0mm 174 W/m2
16:29 86.2 °F /  30.1 °C 64.9 °F /  18.3 °C 29.90in /  1012.4hPa WSW 11.2mph /  18km/h 8.3mph /  13.4km/h 49.2% 0.00in /  0mm 161 W/m2
16:34 85.9 °F /  29.9 °C 65.1 °F /  18.4 °C 29.90in /  1012.4hPa SW 8.6mph /  13.8km/h 13mph /  20.9km/h 50.1% 0.00in /  0mm 162 W/m2
16:39 85.7 °F /  29.8 °C 66.1 °F /  18.9 °C 29.90in /  1012.4hPa SW 6.5mph /  10.5km/h 10mph /  16.1km/h 52% 0.00in /  0mm 165 W/m2
16:44 85.4 °F /  29.7 °C 65.8 °F /  18.8 °C 29.90in /  1012.4hPa SW 9.7mph /  15.6km/h 7.8mph /  12.6km/h 52% 0.00in /  0mm 166 W/m2
16:49 85.2 °F /  29.6 °C 66.1 °F /  18.9 °C 29.90in /  1012.4hPa SW 9.2mph /  14.8km/h 10mph /  16.1km/h 52.9% 0.00in /  0mm 165 W/m2
16:54 85.1 °F /  29.5 °C 66 °F /  18.9 °C 29.90in /  1012.4hPa SW 9mph /  14.5km/h 11mph /  17.7km/h 53% 0.00in /  0mm 158 W/m2
16:59 84.8 °F /  29.3 °C 65.8 °F /  18.8 °C 29.90in /  1012.4hPa SW 9.9mph /  15.9km/h 11mph /  17.7km/h 53% 0.00in /  0mm 144 W/m2
17:04 84.5 °F /  29.2 °C 66 °F /  18.9 °C 29.90in /  1012.4hPa SW 13.9mph /  22.4km/h 12mph /  19.3km/h 54% 0.00in /  0mm 130 W/m2
17:09 83.9 °F /  28.8 °C 66.3 °F /  19.1 °C 29.91in /  1012.8hPa SW 13.2mph /  21.2km/h 15mph /  24.1km/h 55.4% 0.00in /  0mm 117 W/m2
17:14 83.5 °F /  28.6 °C 66.7 °F /  19.3 °C 29.91in /  1012.8hPa SW 12.1mph /  19.5km/h 15mph /  24.1km/h 57% 0.00in /  0mm 108 W/m2
17:19 82.9 °F /  28.3 °C 66.6 °F /  19.2 °C 29.91in /  1012.8hPa SW 12.4mph /  20km/h 14mph /  22.5km/h 57.9% 0.00in /  0mm 103 W/m2
17:24 82.4 °F /  28 °C 66.4 °F /  19.1 °C 29.91in /  1012.8hPa SW 11.8mph /  19km/h 14mph /  22.5km/h 58.5% 0.00in /  0mm 101 W/m2
17:28 82.1 °F /  27.8 °C 66.4 °F /  19.1 °C 29.91in /  1012.8hPa SW 11.6mph /  18.7km/h 13mph /  20.9km/h 59% 0.00in /  0mm 100 W/m2
17:34 81.9 °F /  27.7 °C 66.3 °F /  19.1 °C 29.91in /  1012.8hPa SW 9.3mph /  15km/h 13mph /  20.9km/h 59.4% 0.00in /  0mm 101 W/m2
17:39 81.7 °F /  27.6 °C 66.4 °F /  19.1 °C 29.91in /  1012.8hPa SW 8.6mph /  13.8km/h 10mph /  16.1km/h 60% 0.00in /  0mm 101 W/m2
17:44 81.5 °F /  27.5 °C 66.4 °F /  19.1 °C 29.91in /  1012.8hPa SW 8.2mph /  13.2km/h 9mph /  14.5km/h 60.2% 0.00in /  0mm 101 W/m2
17:48 81.3 °F /  27.4 °C 67 °F /  19.4 °C 29.91in /  1012.8hPa SW 7.6mph /  12.2km/h 9mph /  14.5km/h 61.7% 0.00in /  0mm 97 W/m2
17:54 81.2 °F /  27.3 °C 67 °F /  19.4 °C 29.91in /  1012.8hPa SW 7.4mph /  11.9km/h 9mph /  14.5km/h 62% 0.00in /  0mm 91 W/m2
17:59 81.1 °F /  27.3 °C 66.9 °F /  19.4 °C 29.91in /  1012.8hPa SW 6.2mph /  10km/h 8mph /  12.9km/h 62.2% 0.00in /  0mm 90 W/m2
18:04 81 °F /  27.2 °C 67.1 °F /  19.5 °C 29.91in /  1012.8hPa SW 5.2mph /  8.4km/h 7mph /  11.3km/h 62.7% 0.00in /  0mm 140 W/m2
18:09 81 °F /  27.2 °C 67.2 °F /  19.6 °C 29.91in /  1012.8hPa SW 6mph /  9.7km/h 6mph /  9.7km/h 63% 0.00in /  0mm 209 W/m2
18:14 81.4 °F /  27.4 °C 67.5 °F /  19.7 °C 29.91in /  1012.8hPa SW 6.7mph /  10.8km/h 7mph /  11.3km/h 62.8% 0.00in /  0mm 211 W/m2
18:18 81.7 °F /  27.6 °C 67.4 °F /  19.7 °C 29.91in /  1012.8hPa SW 7.4mph /  11.9km/h 8mph /  12.9km/h 62% 0.00in /  0mm 208 W/m2
18:24 81.9 °F /  27.7 °C 67.5 °F /  19.7 °C 29.91in /  1012.8hPa SW 5.4mph /  8.7km/h 8mph /  12.9km/h 61.8% 0.00in /  0mm 193 W/m2
18:28 82.2 °F /  27.9 °C 67.9 °F /  19.9 °C 29.91in /  1012.8hPa SW 5.7mph /  9.2km/h 6mph /  9.7km/h 62% 0.00in /  0mm 178 W/m2
18:34 82.2 °F /  27.9 °C 67.2 °F /  19.6 °C 29.91in /  1012.8hPa SW 6.3mph /  10.1km/h 7mph /  11.3km/h 60.7% 0.00in /  0mm 162 W/m2
18:39 82.1 °F /  27.8 °C 67.1 °F /  19.5 °C 29.91in /  1012.8hPa SW 5.7mph /  9.2km/h 7mph /  11.3km/h 60.6% 0.00in /  0mm 137 W/m2
18:44 82 °F /  27.8 °C 67.6 °F /  19.8 °C 29.90in /  1012.4hPa SW 4.7mph /  7.6km/h 7mph /  11.3km/h 61.8% 0.00in /  0mm 116 W/m2
18:49 82 °F /  27.8 °C 67.7 °F /  19.8 °C 29.90in /  1012.4hPa SW 5.9mph /  9.5km/h 4.2mph /  6.8km/h 62% 0.00in /  0mm 99 W/m2
18:59 81.6 °F /  27.6 °C 67.4 °F /  19.7 °C 29.90in /  1012.4hPa SW 3.8mph /  6.1km/h 5mph /  8km/h 62.2% 0.00in /  0mm 59 W/m2
19:04 81.4 °F /  27.4 °C 67.6 °F /  19.8 °C 29.91in /  1012.8hPa SW 3.9mph /  6.3km/h 5mph /  8km/h 63% 0.00in /  0mm 46 W/m2
19:09 81.2 °F /  27.3 °C 67.4 °F /  19.7 °C 29.91in /  1012.8hPa SW 1.9mph /  3.1km/h 5mph /  8km/h 63% 0.00in /  0mm 35 W/m2
19:14 81 °F /  27.2 °C 67.8 °F /  19.9 °C 29.91in /  1012.8hPa WSW 1.1mph /  1.8km/h 2mph /  3.2km/h 64.3% 0.00in /  0mm 26 W/m2
19:18 80.7 °F /  27.1 °C 68.4 °F /  20.2 °C 29.91in /  1012.8hPa West 1.1mph /  1.8km/h 2mph /  3.2km/h 66.3% 0.00in /  0mm 20 W/m2
19:24 80.3 °F /  26.8 °C 68.4 °F /  20.2 °C 29.91in /  1012.8hPa WSW 0.7mph /  1.1km/h 1mph /  1.6km/h 67.2% 0.00in /  0mm 14 W/m2
19:29 79.8 °F /  26.6 °C 68.3 °F /  20.2 °C 29.91in /  1012.8hPa WSW 0.4mph /  0.6km/h 1mph /  1.6km/h 68% 0.00in /  0mm 9 W/m2
19:33 79.4 °F /  26.3 °C 67.9 °F /  19.9 °C 29.91in /  1012.8hPa WSW 0.7mph /  1.1km/h 1mph /  1.6km/h 68% 0.00in /  0mm 6 W/m2
19:39 78.8 °F /  26 °C 67.7 °F /  19.8 °C 29.91in /  1012.8hPa NW 1.2mph /  1.9km/h 2mph /  3.2km/h 68.9% 0.00in /  0mm 3 W/m2
19:44 78.3 °F /  25.7 °C 67.6 °F /  19.8 °C 29.91in /  1012.8hPa NNE 1.1mph /  1.8km/h 2mph /  3.2km/h 69.7% 0.00in /  0mm 2 W/m2
19:49 77.9 °F /  25.5 °C 67.3 °F /  19.6 °C 29.91in /  1012.8hPa ESE 2mph /  3.2km/h 1.3mph /  2.1km/h 70% 0.00in /  0mm 0 W/m2
19:54 77.4 °F /  25.2 °C 66.9 °F /  19.4 °C 29.92in /  1013.1hPa SSW 2.3mph /  3.7km/h 2mph /  3.2km/h 70% 0.00in /  0mm 0 W/m2
19:59 77 °F /  25 °C 67.4 °F /  19.7 °C 29.92in /  1013.1hPa SSW 2.2mph /  3.5km/h 2mph /  3.2km/h 72.3% 0.00in /  0mm 0 W/m2
20:04 76.5 °F /  24.7 °C 67.4 °F /  19.7 °C 29.92in /  1013.1hPa SW 2.6mph /  4.2km/h 3mph /  4.8km/h 73.6% 0.00in /  0mm 0 W/m2
20:09 76 °F /  24.4 °C 67.3 °F /  19.6 °C 29.93in /  1013.4hPa SW 2.3mph /  3.7km/h 3mph /  4.8km/h 74.4% 0.00in /  0mm 0 W/m2
20:13 75.6 °F /  24.2 °C 67.6 °F /  19.8 °C 29.93in /  1013.4hPa SW 2.1mph /  3.4km/h 3mph /  4.8km/h 76.3% 0.00in /  0mm 0 W/m2
20:19 75.1 °F /  23.9 °C 67.5 °F /  19.7 °C 29.93in /  1013.4hPa SW 2.2mph /  3.5km/h 1.3mph /  2.1km/h 77.2% 0.00in /  0mm 0 W/m2
20:24 74.8 °F /  23.8 °C 67.2 °F /  19.6 °C 29.93in /  1013.4hPa SW 1.5mph /  2.4km/h 2mph /  3.2km/h 77.5% 0.00in /  0mm 0 W/m2
20:29 74.5 °F /  23.6 °C 67.2 °F /  19.6 °C 29.94in /  1013.8hPa SSW 1.7mph /  2.7km/h 1.3mph /  2.1km/h 78% 0.00in /  0mm 0 W/m2
20:34 74.1 °F /  23.4 °C 66.9 °F /  19.4 °C 29.94in /  1013.8hPa SW 1.9mph /  3.1km/h 2.7mph /  4.3km/h 78.3% 0.00in /  0mm 0 W/m2
20:39 73.8 °F /  23.2 °C 66.5 °F /  19.2 °C 29.94in /  1013.8hPa SSW 3.1mph /  5km/h 4mph /  6.4km/h 78% 0.00in /  0mm 0 W/m2
20:44 73.5 °F /  23.1 °C 66.2 °F /  19 °C 29.94in /  1013.8hPa South 2.2mph /  3.5km/h 3mph /  4.8km/h 78% 0.00in /  0mm 0 W/m2
20:49 73.3 °F /  22.9 °C 66 °F /  18.9 °C 29.94in /  1013.8hPa SSW 2.2mph /  3.5km/h 3mph /  4.8km/h 78% 0.00in /  0mm 0 W/m2
20:54 73 °F /  22.8 °C 66 °F /  18.9 °C 29.94in /  1013.8hPa SSW 2.1mph /  3.4km/h 2mph /  3.2km/h 78.8% 0.00in /  0mm 0 W/m2
20:59 72.6 °F /  22.6 °C 65.7 °F /  18.7 °C 29.94in /  1013.8hPa SSW 3mph /  4.8km/h 2mph /  3.2km/h 79% 0.00in /  0mm 0 W/m2
21:04 72.3 °F /  22.4 °C 65.4 °F /  18.6 °C 29.94in /  1013.8hPa SSW 3.6mph /  5.8km/h 5mph /  8km/h 79% 0.00in /  0mm 0 W/m2
21:09 72 °F /  22.2 °C 65.6 °F /  18.7 °C 29.94in /  1013.8hPa South 2.4mph /  3.9km/h 4mph /  6.4km/h 80.2% 0.00in /  0mm 0 W/m2
21:14 71.9 °F /  22.2 °C 66.1 °F /  18.9 °C 29.94in /  1013.8hPa SSW 1.3mph /  2.1km/h 2mph /  3.2km/h 82.3% 0.00in /  0mm 0 W/m2
21:19 71.5 °F /  21.9 °C 65.7 °F /  18.7 °C 29.94in /  1013.8hPa SSW 1.4mph /  2.3km/h 2mph /  3.2km/h 81.9% 0.00in /  0mm 0 W/m2
21:23 71.3 °F /  21.8 °C 65.8 °F /  18.8 °C 29.94in /  1013.8hPa SSW 3.4mph /  5.5km/h 3.4mph /  5.5km/h 82.6% 0.00in /  0mm 0 W/m2
21:29 71.1 °F /  21.7 °C 65 °F /  18.3 °C 29.95in /  1014.1hPa South 3.6mph /  5.8km/h 2.7mph /  4.3km/h 81% 0.00in /  0mm 0 W/m2
21:34 70.9 °F /  21.6 °C 64.8 °F /  18.2 °C 29.95in /  1014.1hPa SSE 1.7mph /  2.7km/h 4mph /  6.4km/h 81% 0.00in /  0mm 0 W/m2
21:39 70.8 °F /  21.6 °C 64.7 °F /  18.2 °C 29.95in /  1014.1hPa SSE 1.7mph /  2.7km/h 3mph /  4.8km/h 81% 0.00in /  0mm 0 W/m2
21:44 70.7 °F /  21.5 °C 65.1 °F /  18.4 °C 29.95in /  1014.1hPa ESE 0.9mph /  1.4km/h 2mph /  3.2km/h 82.5% 0.00in /  0mm 0 W/m2
21:49 70.4 °F /  21.3 °C 65.2 °F /  18.4 °C 29.95in /  1014.1hPa North 1mph /  1.6km/h 2mph /  3.2km/h 83.3% 0.00in /  0mm 0 W/m2
21:54 70.2 °F /  21.2 °C 64.9 °F /  18.3 °C 29.95in /  1014.1hPa North 1.3mph /  2.1km/h 2mph /  3.2km/h 83.5% 0.00in /  0mm 0 W/m2
21:59 69.9 °F /  21.1 °C 64.8 °F /  18.2 °C 29.95in /  1014.1hPa North 1.1mph /  1.8km/h 2mph /  3.2km/h 84% 0.00in /  0mm 0 W/m2
22:04 69.6 °F /  20.9 °C 64.6 °F /  18.1 °C 29.95in /  1014.1hPa NNW 0.5mph /  0.8km/h 1mph /  1.6km/h 84% 0.00in /  0mm 0 W/m2
22:09 69.4 °F /  20.8 °C 64.5 °F /  18.1 °C 29.95in /  1014.1hPa North 1.9mph /  3.1km/h 2mph /  3.2km/h 84.1% 0.00in /  0mm 0 W/m2
22:14 69.3 °F /  20.7 °C 64.3 °F /  17.9 °C 29.95in /  1014.1hPa ESE 1.6mph /  2.6km/h 2mph /  3.2km/h 84.2% 0.00in /  0mm 0 W/m2
22:19 69.1 °F /  20.6 °C 64.4 °F /  18 °C 29.96in /  1014.4hPa ENE 1.1mph /  1.8km/h 2mph /  3.2km/h 85% 0.00in /  0mm 0 W/m2
22:24 68.9 °F /  20.5 °C 64.6 °F /  18.1 °C 29.96in /  1014.4hPa NNW 0.3mph /  0.5km/h 1mph /  1.6km/h 86.4% 0.00in /  0mm 0 W/m2
22:29 68.6 °F /  20.3 °C 64.9 °F /  18.3 °C 29.96in /  1014.4hPa West 0.4mph /  0.6km/h 1mph /  1.6km/h 88% 0.00in /  0mm 0 W/m2
22:34 68.4 °F /  20.2 °C 64.7 °F /  18.2 °C 29.96in /  1014.4hPa NNE 1.2mph /  1.9km/h 1.1mph /  1.8km/h 88% 0.00in /  0mm 0 W/m2
22:39 68.1 °F /  20.1 °C 64.7 °F /  18.2 °C 29.96in /  1014.4hPa NNW 1.4mph /  2.3km/h 1.6mph /  2.6km/h 88.8% 0.00in /  0mm 0 W/m2
22:44 67.8 °F /  19.9 °C 64.5 °F /  18.1 °C 29.96in /  1014.4hPa West 1.5mph /  2.4km/h 2mph /  3.2km/h 89% 0.00in /  0mm 0 W/m2
22:49 67.4 °F /  19.7 °C 64.1 °F /  17.8 °C 29.96in /  1014.4hPa West 2mph /  3.2km/h 2mph /  3.2km/h 89.2% 0.00in /  0mm 0 W/m2
22:54 67.1 °F /  19.5 °C 64.1 °F /  17.8 °C 29.96in /  1014.4hPa NW 0.8mph /  1.3km/h 2mph /  3.2km/h 90% 0.00in /  0mm 0 W/m2
22:59 66.9 °F /  19.4 °C 63.9 °F /  17.7 °C 29.96in /  1014.4hPa WNW 1.2mph /  1.9km/h 0.4mph /  0.6km/h 90% 0.00in /  0mm 0 W/m2
23:04 66.8 °F /  19.3 °C 64 °F /  17.8 °C 29.96in /  1014.4hPa West 2mph /  3.2km/h 2mph /  3.2km/h 90.8% 0.00in /  0mm 0 W/m2
23:08 66.6 °F /  19.2 °C 63.9 °F /  17.7 °C 29.96in /  1014.4hPa NW 2.5mph /  4km/h 2mph /  3.2km/h 91% 0.00in /  0mm 0 W/m2
23:14 66.4 °F /  19.1 °C 63.7 °F /  17.6 °C 29.96in /  1014.4hPa NW 3mph /  4.8km/h 4mph /  6.4km/h 90.8% 0.00in /  0mm 0 W/m2
23:18 66.5 °F /  19.2 °C 63.6 °F /  17.6 °C 29.96in /  1014.4hPa SW 3.6mph /  5.8km/h 2.5mph /  4km/h 90.4% 0.00in /  0mm 0 W/m2
23:24 66.2 °F /  19 °C 63.5 °F /  17.5 °C 29.97in /  1014.8hPa West 3mph /  4.8km/h 3mph /  4.8km/h 91% 0.00in /  0mm 0 W/m2
23:29 65.8 °F /  18.8 °C 63.2 °F /  17.3 °C 29.97in /  1014.8hPa WNW 2.1mph /  3.4km/h 3mph /  4.8km/h 91% 0.00in /  0mm 0 W/m2
23:34 65.6 °F /  18.7 °C 62.9 °F /  17.2 °C 29.97in /  1014.8hPa West 1.9mph /  3.1km/h 2mph /  3.2km/h 91% 0.00in /  0mm 0 W/m2
23:39 65.3 °F /  18.5 °C 62.9 °F /  17.2 °C 29.97in /  1014.8hPa WNW 2.6mph /  4.2km/h 3mph /  4.8km/h 92% 0.00in /  0mm 0 W/m2
23:44 65.1 °F /  18.4 °C 63 °F /  17.2 °C 29.97in /  1014.8hPa WNW 3mph /  4.8km/h 3mph /  4.8km/h 93% 0.00in /  0mm 0 W/m2
23:49 64.9 °F /  18.3 °C 62.8 °F /  17.1 °C 29.97in /  1014.8hPa NW 3.3mph /  5.3km/h 4mph /  6.4km/h 93% 0.00in /  0mm 0 W/m2
23:54 64.7 °F /  18.2 °C 62.6 °F /  17 °C 29.97in /  1014.8hPa NW 2.5mph /  4km/h 3mph /  4.8km/h 93% 0.00in /  0mm 0 W/m2
23:59 64.5 °F /  18.1 °C 62.5 °F /  16.9 °C 29.97in /  1014.8hPa NW 2.6mph /  4.2km/h 2.5mph /  4km/h 93.5% 0.00in /  0mm 0 W/m2
Knjazevac, Serbia
Compliments of Weather Underground - 4 mb